createdAt,value
2022-12-18T00:06:14.847Z,98006.38
2022-12-18T00:11:11.005Z,98013.94
2022-12-18T00:16:05.828Z,98007.13
2022-12-18T00:21:02.459Z,98007.91
2022-12-18T00:26:00.971Z,98017.34
2022-12-18T00:31:03.190Z,98007.09
2022-12-18T00:35:56.662Z,98024.19
2022-12-18T00:47:22.914Z,98037.06
2022-12-18T00:52:16.226Z,98031.03
2022-12-18T00:57:33.043Z,98019.84
2022-12-18T01:02:28.144Z,98032.78
2022-12-18T01:07:22.267Z,98038.63
2022-12-18T01:12:15.621Z,98067.03
2022-12-18T01:17:43.254Z,98061.81
2022-12-18T01:22:36.762Z,98057.47
2022-12-18T01:27:30.357Z,98066.16
2022-12-18T01:32:38.986Z,98070.47
2022-12-18T01:37:33.866Z,98074.78
2022-12-18T01:42:27.971Z,98073.13
2022-12-18T01:47:27.249Z,98072.16
2022-12-18T01:52:23.520Z,98062.56
2022-12-18T01:57:18.697Z,98064.22
2022-12-18T02:02:14.327Z,98074.53
2022-12-18T02:07:19.018Z,98081.47
2022-12-18T02:12:22.071Z,98085.66
2022-12-18T02:17:23.196Z,98077.03
2022-12-18T02:22:35.821Z,98074.41
2022-12-18T02:27:34.384Z,98074.44
2022-12-18T02:32:33.707Z,98076.97
2022-12-18T02:37:30.348Z,98077.09
2022-12-18T02:42:25.061Z,98071.91
2022-12-18T02:47:24.577Z,98078.88
2022-12-18T02:52:35.885Z,98075.44
2022-12-18T02:57:38.952Z,98081.44
2022-12-18T03:02:45.726Z,98083.09
2022-12-18T03:07:47.446Z,98095.91
2022-12-18T03:12:46.986Z,98093.47
2022-12-18T03:17:47.724Z,98095.16
2022-12-18T03:22:44.894Z,98089.16
2022-12-18T03:27:46.149Z,98091.75
2022-12-18T03:32:48.756Z,98084.03
2022-12-18T03:37:42.267Z,98077.09
2022-12-18T03:42:50.051Z,98079.47
2022-12-18T03:48:01.328Z,98091.56
2022-12-18T03:53:02.079Z,98095.78
2022-12-18T03:57:56.725Z,98112.22
2022-12-18T04:02:56.393Z,98111.47
2022-12-18T04:07:53.539Z,98106.16
2022-12-18T04:12:46.871Z,98118.28
2022-12-18T04:17:44.609Z,98138.91
2022-12-18T04:22:39.295Z,98130.28
2022-12-18T04:27:32.614Z,98126.78
2022-12-18T04:32:26.718Z,98125.03
2022-12-18T04:37:20.080Z,98140.59
2022-12-18T04:42:14.828Z,98151.59
2022-12-18T04:47:08.476Z,98142.19
2022-12-18T04:52:01.753Z,98133.63
2022-12-18T04:56:55.141Z,98131.06
2022-12-18T05:01:50.171Z,98127.56
2022-12-18T05:06:43.620Z,98138.72
2022-12-18T05:11:39.812Z,98140.44
2022-12-18T05:16:33.158Z,98153.28
2022-12-18T05:21:28.080Z,98148.03
2022-12-18T05:26:21.626Z,98150.59
2022-12-18T05:31:16.212Z,98154.13
2022-12-18T05:36:12.390Z,98168.84
2022-12-18T05:41:07.745Z,98169.72
2022-12-18T05:46:06.163Z,98166.16
2022-12-18T05:51:08.213Z,98159.22
2022-12-18T05:56:03.906Z,98164.34
2022-12-18T06:00:59.220Z,98169.59
2022-12-18T06:05:52.556Z,98150.66
2022-12-18T06:10:53.787Z,98149.78
2022-12-18T06:15:47.119Z,98147.19
2022-12-18T06:20:42.464Z,98147.19
2022-12-18T06:25:35.736Z,98157.50
2022-12-18T06:30:29.011Z,98164.28
2022-12-18T06:35:22.448Z,98170.25
2022-12-18T06:40:17.762Z,98179.94
2022-12-18T06:45:12.496Z,98186.75
2022-12-18T06:50:06.685Z,98193.53
2022-12-18T06:55:00.274Z,98201.25
2022-12-18T06:59:54.987Z,98193.44
2022-12-18T07:04:50.559Z,98205.41
2022-12-18T07:09:44.024Z,98210.56
2022-12-18T07:14:37.308Z,98211.34
2022-12-18T07:19:32.109Z,98215.66
2022-12-18T07:24:25.706Z,98225.97
2022-12-18T07:29:19.086Z,98242.34
2022-12-18T07:34:13.604Z,98247.41
2022-12-18T07:39:08.578Z,98244.00
2022-12-18T07:44:01.891Z,98253.38
2022-12-18T07:48:55.346Z,98251.63
2022-12-18T07:53:52.427Z,98240.44
2022-12-18T07:58:52.293Z,98237.88
2022-12-18T08:03:45.618Z,98246.50
2022-12-18T08:08:39.231Z,98255.06
2022-12-18T08:13:32.843Z,98268.88
2022-12-18T08:18:27.564Z,98263.59
2022-12-18T08:23:20.994Z,98256.75
2022-12-18T08:28:17.131Z,98265.38
2022-12-18T08:33:10.461Z,98262.75
2022-12-18T08:38:05.273Z,98259.34
2022-12-18T08:43:16.159Z,98261.06
2022-12-18T08:48:09.624Z,98256.69
2022-12-18T08:53:05.105Z,98273.03
2022-12-18T08:57:58.845Z,98276.47
2022-12-18T09:02:52.416Z,98262.59
2022-12-18T09:07:45.893Z,98279.00
2022-12-18T09:12:41.233Z,98265.28
2022-12-18T09:17:34.592Z,98262.69
2022-12-18T09:22:27.902Z,98264.44
2022-12-18T09:27:21.265Z,98252.25
2022-12-18T09:32:22.033Z,98243.69
2022-12-18T09:37:15.736Z,98250.53
2022-12-18T09:42:18.671Z,98256.50
2022-12-18T09:47:20.651Z,98269.34
2022-12-18T09:52:22.482Z,98261.50
2022-12-18T09:57:19.531Z,98260.63
2022-12-18T11:53:30.122Z,98230.56
2022-12-18T11:58:45.058Z,98240.34
2022-12-18T12:04:39.656Z,98214.63
2022-12-18T12:50:01.443Z,98187.91
2022-12-18T12:54:55.691Z,98183.53
2022-12-18T13:00:03.252Z,98181.16
2022-12-18T13:05:07.227Z,98182.00
2022-12-18T13:10:33.454Z,98182.94
2022-12-18T13:21:13.400Z,98170.78
2022-12-18T13:26:35.794Z,98164.63
2022-12-18T13:32:02.305Z,98185.41
2022-12-18T13:37:00.583Z,98189.00
2022-12-18T13:42:43.885Z,98185.41
2022-12-18T13:54:25.392Z,98183.63
2022-12-18T13:59:24.664Z,98185.25
2022-12-18T14:17:51.957Z,98194.69
2022-12-18T14:22:48.654Z,98199.88
2022-12-18T14:27:47.012Z,98193.22
2022-12-18T14:32:40.332Z,98195.75
2022-12-18T14:37:35.061Z,98194.97
2022-12-18T14:42:30.361Z,98196.59
2022-12-18T14:47:23.795Z,98193.16
2022-12-18T14:52:29.051Z,98182.81
2022-12-18T14:57:27.931Z,98195.75
2022-12-18T15:02:25.618Z,98194.94
2022-12-18T15:07:22.524Z,98193.22
2022-12-18T15:12:37.425Z,98200.13
2022-12-18T15:17:30.997Z,98195.69
2022-12-18T15:22:29.634Z,98195.69
2022-12-18T15:27:32.426Z,98199.25
2022-12-18T15:32:25.771Z,98201.00
2022-12-18T15:37:19.383Z,98208.00
2022-12-18T15:42:30.189Z,98196.88
2022-12-18T15:47:25.180Z,98180.50
2022-12-18T15:52:27.088Z,98182.16
2022-12-18T15:57:26.730Z,98180.44
2022-12-18T16:02:23.786Z,98176.19
2022-12-18T16:07:22.850Z,98179.53
2022-12-18T16:12:22.964Z,98184.59
2022-12-18T16:17:17.305Z,98182.00
2022-12-18T16:22:23.523Z,98186.34
2022-12-18T16:27:16.871Z,98182.03
2022-12-18T16:32:16.924Z,98188.81
2022-12-18T16:37:13.138Z,98191.31
2022-12-18T16:42:15.504Z,98181.78
2022-12-18T16:47:09.280Z,98193.78
2022-12-18T16:52:05.037Z,98182.81
2022-12-18T16:56:58.709Z,98180.97
2022-12-18T17:01:53.512Z,98177.50
2022-12-18T17:06:51.887Z,98174.97
2022-12-18T17:11:45.789Z,98168.00
2022-12-18T17:16:40.093Z,98170.72
2022-12-18T17:21:35.128Z,98168.97
2022-12-18T17:26:29.629Z,98161.19
2022-12-18T18:04:16.517Z,98135.34
2022-12-18T18:09:16.582Z,98142.34
2022-12-18T18:14:16.797Z,98139.63
2022-12-18T18:25:43.279Z,98139.59
2022-12-18T18:38:19.222Z,98149.97
2022-12-18T18:43:13.936Z,98147.34
2022-12-18T19:07:42.260Z,98145.44
2022-12-18T19:19:44.262Z,98149.97
2022-12-18T20:17:15.876Z,98103.34
2022-12-18T20:22:09.765Z,98100.00
2022-12-18T20:33:37.098Z,98098.31
2022-12-18T20:38:30.729Z,98085.34
2022-12-18T20:43:28.296Z,98093.25
2022-12-18T20:48:26.476Z,98100.78
2022-12-18T20:53:21.503Z,98106.78
2022-12-18T20:58:14.921Z,98095.53
2022-12-18T21:03:08.356Z,98090.41
2022-12-18T21:08:01.884Z,98080.91
2022-12-18T21:45:50.920Z,98076.81
2022-12-18T21:50:46.135Z,98090.47
2022-12-18T22:02:15.750Z,98086.16
2022-12-18T22:07:10.510Z,98074.94
2022-12-18T22:18:36.391Z,98068.03
2022-12-18T22:23:29.832Z,98058.53
2022-12-18T22:28:37.039Z,98069.00
2022-12-18T22:33:30.462Z,98090.53
2022-12-18T22:38:26.713Z,98067.22
2022-12-18T22:43:20.025Z,98072.38
2022-12-18T22:48:13.336Z,98066.31
2022-12-18T22:53:07.900Z,98063.00
2022-12-18T22:58:02.531Z,98062.06
2022-12-18T23:03:00.420Z,98072.41
2022-12-18T23:07:54.364Z,98064.53
2022-12-18T23:12:47.674Z,98065.56
2022-12-18T23:17:42.564Z,98050.09
2022-12-18T23:22:35.818Z,98044.78
2022-12-18T23:27:29.046Z,98052.75
2022-12-18T23:32:22.333Z,98063.09
2022-12-18T23:37:29.965Z,98058.78
2022-12-18T23:42:30.232Z,98065.56
